createdAt,value
2023-05-17T00:01:24.165Z,97559.56
2023-05-17T00:05:41.810Z,97574.66
2023-05-17T00:10:00.195Z,97572.28
2023-05-17T00:14:17.836Z,97560.34
2023-05-17T00:18:35.640Z,97567.31
2023-05-17T00:22:53.246Z,97564.19
2023-05-17T00:27:10.889Z,97571.50
2023-05-17T00:31:28.573Z,97570.78
2023-05-17T00:35:46.127Z,97574.59
2023-05-17T00:40:05.945Z,97578.47
2023-05-17T00:44:23.558Z,97581.16
2023-05-17T00:48:41.585Z,97582.31
2023-05-17T00:52:59.461Z,97581.94
2023-05-17T00:57:17.450Z,97571.75
2023-05-17T01:01:36.603Z,97557.84
2023-05-17T01:05:54.304Z,97533.56
2023-05-17T01:10:12.358Z,97552.47
2023-05-17T01:14:51.863Z,97563.84
2023-05-17T01:19:39.763Z,97555.78
2023-05-17T01:24:40.546Z,97550.25
2023-05-17T01:29:00.449Z,97541.97
2023-05-17T01:33:21.625Z,97545.94
2023-05-17T01:37:39.954Z,97543.19
2023-05-17T01:42:07.683Z,97543.53
2023-05-17T01:46:35.828Z,97549.72
2023-05-17T01:50:56.923Z,97553.75
2023-05-17T01:55:26.356Z,97553.09
2023-05-17T01:59:45.398Z,97553.88
2023-05-17T02:04:03.049Z,97549.19
2023-05-17T02:08:20.731Z,97559.19
2023-05-17T02:12:38.612Z,97562.59
2023-05-17T02:16:56.207Z,97558.97
2023-05-17T02:21:13.869Z,97560.22
2023-05-17T02:25:32.046Z,97564.72
2023-05-17T02:29:49.610Z,97572.44
2023-05-17T02:34:07.412Z,97572.56
2023-05-17T02:38:25.128Z,97586.69
2023-05-17T02:42:42.849Z,97582.00
2023-05-17T02:47:00.411Z,97575.22
2023-05-17T02:51:18.216Z,97590.06
2023-05-17T02:55:36.031Z,97581.22
2023-05-17T02:59:53.804Z,97580.59
2023-05-17T03:04:11.372Z,97586.63
2023-05-17T03:08:29.169Z,97585.72
2023-05-17T03:12:46.771Z,97591.59
2023-05-17T03:17:04.742Z,97598.16
2023-05-17T03:21:22.249Z,97600.81
2023-05-17T03:25:41.065Z,97601.94
2023-05-17T03:29:58.574Z,97593.25
2023-05-17T03:34:16.560Z,97592.63
2023-05-17T03:38:34.096Z,97596.41
2023-05-17T03:42:52.316Z,97611.97
2023-05-17T03:47:09.893Z,97613.47
2023-05-17T03:51:27.672Z,97617.97
2023-05-17T03:55:45.398Z,97621.31
2023-05-17T04:00:12.074Z,97629.91
2023-05-17T04:04:29.849Z,97636.06
2023-05-17T04:08:47.672Z,97617.72
2023-05-17T04:13:05.211Z,97624.44
2023-05-17T04:17:23.076Z,97635.97
2023-05-17T04:21:40.881Z,97641.13
2023-05-17T04:25:58.698Z,97647.13
2023-05-17T04:30:17.477Z,97647.75
2023-05-17T04:34:35.007Z,97652.50
2023-05-17T04:38:52.851Z,97650.78
2023-05-17T04:43:11.140Z,97644.59
2023-05-17T04:47:28.340Z,97654.41
2023-05-17T04:51:46.839Z,97667.44
2023-05-17T04:56:04.689Z,97666.09
2023-05-17T05:00:24.568Z,97675.81
2023-05-17T05:04:42.167Z,97672.88
2023-05-17T05:09:01.916Z,97684.50
2023-05-17T05:13:19.568Z,97681.91
2023-05-17T05:17:37.908Z,97685.94
2023-05-17T05:21:55.368Z,97689.22
2023-05-17T05:26:13.083Z,97682.38
2023-05-17T05:30:30.766Z,97687.59
2023-05-17T05:34:48.590Z,97679.03
2023-05-17T05:39:08.536Z,97697.56
2023-05-17T05:43:26.693Z,97705.44
2023-05-17T05:47:44.469Z,97701.94
2023-05-17T05:52:02.363Z,97710.28
2023-05-17T05:56:20.007Z,97713.59
2023-05-17T06:00:37.780Z,97718.09
2023-05-17T06:04:55.339Z,97719.84
2023-05-17T06:09:12.972Z,97730.03
2023-05-17T06:13:30.836Z,97746.22
2023-05-17T06:17:48.819Z,97752.94
2023-05-17T06:22:06.395Z,97745.94
2023-05-17T06:26:24.017Z,97753.84
2023-05-17T06:30:41.744Z,97761.88
2023-05-17T06:34:59.314Z,97768.19
2023-05-17T06:39:17.125Z,97762.66
2023-05-17T06:43:35.768Z,97763.38
2023-05-17T06:47:55.430Z,97775.03
2023-05-17T06:52:13.206Z,97777.31
2023-05-17T06:56:31.877Z,97786.31
2023-05-17T07:00:49.410Z,97773.53
2023-05-17T07:05:08.176Z,97777.44
2023-05-17T07:09:25.905Z,97780.16
2023-05-17T07:13:43.798Z,97791.91
2023-05-17T07:18:01.439Z,97799.19
2023-05-17T07:22:20.089Z,97804.16
2023-05-17T07:26:37.872Z,97812.72
2023-05-17T07:30:55.448Z,97815.66
2023-05-17T07:35:13.210Z,97817.38
2023-05-17T07:39:30.923Z,97819.91
2023-05-17T07:43:48.691Z,97827.19
2023-05-17T07:48:06.515Z,97831.50
2023-05-17T07:52:24.588Z,97848.25
2023-05-17T07:56:42.239Z,97847.56
2023-05-17T08:01:00.212Z,97874.03
2023-05-17T08:05:17.814Z,97869.38
2023-05-17T08:09:35.575Z,97868.28
2023-05-17T08:13:53.354Z,97871.53
2023-05-17T08:18:11.007Z,97871.66
2023-05-17T08:22:28.759Z,97887.84
2023-05-17T08:26:46.423Z,97901.38
2023-05-17T08:31:04.529Z,97908.84
2023-05-17T08:35:22.075Z,97904.56
2023-05-17T08:39:39.857Z,97914.28
2023-05-17T08:43:59.251Z,97919.47
2023-05-17T08:48:23.488Z,97925.66
2023-05-17T08:52:46.799Z,97930.03
2023-05-17T08:57:06.985Z,97929.91
2023-05-17T09:01:26.476Z,97930.09
2023-05-17T09:05:47.731Z,97929.13
2023-05-17T09:10:06.986Z,97930.94
2023-05-17T09:14:24.581Z,97937.41
2023-05-17T09:18:42.638Z,97942.63
2023-05-17T09:23:01.443Z,97955.44
2023-05-17T09:27:26.671Z,97965.91
2023-05-17T09:31:45.129Z,97960.22
2023-05-17T09:36:03.376Z,97975.66
2023-05-17T09:40:25.461Z,97983.13
2023-05-17T09:44:53.709Z,97981.09
2023-05-17T09:49:11.501Z,97980.75
2023-05-17T09:53:38.565Z,97985.25
2023-05-17T09:58:04.064Z,97983.34
2023-05-17T10:02:33.038Z,97993.88
2023-05-17T10:06:52.737Z,98001.81
2023-05-17T10:11:11.351Z,97998.31
2023-05-17T10:15:29.856Z,98002.03
2023-05-17T10:19:48.668Z,98003.44
2023-05-17T10:24:08.301Z,98000.00
2023-05-17T10:28:28.758Z,97998.22
2023-05-17T10:32:46.944Z,98006.22
2023-05-17T10:37:05.957Z,98008.16
2023-05-17T10:41:27.747Z,98019.53
2023-05-17T10:45:46.926Z,98014.66
2023-05-17T10:50:12.248Z,98014.97
2023-05-17T10:54:44.981Z,98024.38
2023-05-17T10:59:18.716Z,98033.03
2023-05-17T11:03:36.966Z,98041.84
2023-05-17T11:08:17.524Z,98046.03
2023-05-17T11:12:42.095Z,98041.19
2023-05-17T11:16:59.621Z,98060.47
2023-05-17T11:21:17.803Z,98050.97
2023-05-17T11:25:41.081Z,98057.88
2023-05-17T11:30:00.576Z,98054.00
2023-05-17T11:34:19.037Z,98060.94
2023-05-17T11:38:37.224Z,98072.81
2023-05-17T11:43:17.383Z,98067.94
2023-05-17T11:47:40.851Z,98078.38
2023-05-17T11:51:59.371Z,98070.22
2023-05-17T11:56:20.647Z,98075.97
2023-05-17T12:00:42.316Z,98079.06
2023-05-17T12:05:00.294Z,98088.22
2023-05-17T12:09:18.020Z,98097.75
2023-05-17T12:13:36.206Z,98097.88
2023-05-17T12:17:55.688Z,98107.25
2023-05-17T12:22:13.386Z,98107.63
2023-05-17T12:26:31.346Z,98107.75
2023-05-17T12:30:58.099Z,98117.94
2023-05-17T12:35:16.184Z,98120.09
2023-05-17T12:39:33.677Z,98117.94
2023-05-17T12:43:53.227Z,98136.19
2023-05-17T12:48:17.695Z,98123.25
2023-05-17T12:52:37.235Z,98124.41
2023-05-17T12:56:55.404Z,98124.41
2023-05-17T13:01:14.909Z,98122.63
2023-05-17T13:05:32.090Z,98127.34
2023-05-17T13:09:50.383Z,98132.56
2023-05-17T13:14:09.329Z,98144.69
2023-05-17T13:18:27.239Z,98139.25
2023-05-17T13:22:49.058Z,98140.19
2023-05-17T13:27:07.901Z,98155.13
2023-05-17T13:31:25.716Z,98153.56
2023-05-17T13:35:43.912Z,98147.56
2023-05-17T13:40:01.683Z,98168.53
2023-05-17T13:44:19.607Z,98165.56
2023-05-17T13:48:39.055Z,98170.09
2023-05-17T13:52:58.093Z,98174.75
2023-05-17T13:57:15.657Z,98164.97
2023-05-17T14:01:33.995Z,98183.56
2023-05-17T14:05:53.055Z,98187.78
2023-05-17T14:10:26.110Z,98193.00
2023-05-17T14:14:43.651Z,98190.06
2023-05-17T14:19:04.444Z,98206.03
2023-05-17T14:23:22.433Z,98221.31
2023-05-17T14:27:43.278Z,98221.78
2023-05-17T14:32:02.081Z,98234.91
2023-05-17T14:36:19.652Z,98241.59
2023-05-17T14:40:37.411Z,98235.25
2023-05-17T14:44:55.116Z,98237.50
2023-05-17T14:49:12.881Z,98235.72
2023-05-17T14:53:31.099Z,98238.78
2023-05-17T14:57:50.505Z,98238.00
2023-05-17T15:02:08.390Z,98241.94
2023-05-17T15:06:26.304Z,98247.03
2023-05-17T15:10:43.970Z,98245.94
2023-05-17T15:15:01.843Z,98256.44
2023-05-17T15:19:19.889Z,98250.09
2023-05-17T15:23:39.079Z,98256.78
2023-05-17T15:27:56.660Z,98245.88
2023-05-17T15:32:14.451Z,98253.03
2023-05-17T15:36:36.485Z,98258.59
2023-05-17T15:41:12.704Z,98259.81
2023-05-17T15:45:30.731Z,98261.44
2023-05-17T15:49:50.094Z,98274.53
2023-05-17T15:54:07.684Z,98277.38
2023-05-17T15:58:28.672Z,98285.88
2023-05-17T16:02:46.785Z,98290.53
2023-05-17T16:07:04.843Z,98295.44
2023-05-17T16:11:23.539Z,98291.09
2023-05-17T16:15:44.994Z,98289.59
2023-05-17T16:20:02.898Z,98299.69
2023-05-17T16:24:21.811Z,98303.44
2023-05-17T16:28:38.894Z,98306.84
2023-05-17T16:32:56.759Z,98309.44
2023-05-17T16:37:14.376Z,98316.47
2023-05-17T16:41:33.802Z,98313.88
2023-05-17T16:45:53.219Z,98321.53
2023-05-17T16:50:11.649Z,98324.50
2023-05-17T16:54:30.042Z,98328.13
2023-05-17T16:58:47.822Z,98332.19
2023-05-17T17:03:08.450Z,98333.22
2023-05-17T17:07:26.844Z,98335.72
2023-05-17T17:11:44.923Z,98334.34
2023-05-17T17:16:02.465Z,98340.00
2023-05-17T17:20:21.141Z,98332.63
2023-05-17T17:24:39.767Z,98337.94
2023-05-17T17:28:59.246Z,98344.78
2023-05-17T17:33:16.986Z,98344.28
2023-05-17T17:37:34.555Z,98349.50
2023-05-17T17:41:52.391Z,98350.97
2023-05-17T17:46:10.186Z,98355.50
2023-05-17T17:50:28.076Z,98360.56
2023-05-17T17:54:46.302Z,98369.31
2023-05-17T17:59:05.339Z,98366.06
2023-05-17T18:03:25.418Z,98377.56
2023-05-17T18:07:43.209Z,98378.47
2023-05-17T18:12:00.845Z,98373.25
2023-05-17T18:16:18.772Z,98379.88
2023-05-17T18:20:36.506Z,98382.44
2023-05-17T18:24:54.299Z,98390.75
2023-05-17T18:29:12.141Z,98399.06
2023-05-17T18:33:29.831Z,98399.72
2023-05-17T18:37:48.697Z,98406.47
2023-05-17T18:42:06.334Z,98389.75
2023-05-17T18:46:24.018Z,98390.31
2023-05-17T18:50:41.620Z,98400.94
2023-05-17T18:54:59.376Z,98410.28
2023-05-17T18:59:16.986Z,98412.03
2023-05-17T19:03:34.947Z,98417.38
2023-05-17T19:07:52.725Z,98413.84
2023-05-17T19:12:10.780Z,98419.91
2023-05-17T19:16:29.519Z,98425.47
2023-05-17T19:20:47.387Z,98419.84
2023-05-17T19:25:05.875Z,98421.78
2023-05-17T19:29:23.519Z,98415.56
2023-05-17T19:33:41.564Z,98423.66
2023-05-17T19:37:59.762Z,98422.97
2023-05-17T19:42:17.518Z,98429.53
2023-05-17T19:46:35.059Z,98428.69
2023-05-17T19:50:56.658Z,98434.31
2023-05-17T19:55:16.068Z,98450.97
2023-05-17T19:59:34.511Z,98456.19
2023-05-17T20:03:52.767Z,98459.47
2023-05-17T20:08:10.470Z,98469.56
2023-05-17T20:12:28.028Z,98475.41
2023-05-17T20:16:45.992Z,98471.94
2023-05-17T20:21:03.983Z,98465.53
2023-05-17T20:25:22.288Z,98469.75
2023-05-17T20:29:40.920Z,98464.13
2023-05-17T20:33:59.013Z,98479.63
2023-05-17T20:38:16.956Z,98474.41
2023-05-17T20:42:38.034Z,98482.22
2023-05-17T20:46:56.956Z,98478.59
2023-05-17T20:51:15.501Z,98476.84
2023-05-17T20:55:33.026Z,98486.09
2023-05-17T20:59:51.279Z,98488.41
2023-05-17T21:04:08.941Z,98494.50
2023-05-17T21:08:26.702Z,98496.13
2023-05-17T21:12:44.616Z,98503.13
2023-05-17T21:17:04.277Z,98508.91
2023-05-17T21:21:21.991Z,98505.66
2023-05-17T21:25:39.602Z,98510.91
2023-05-17T21:29:57.500Z,98512.72
2023-05-17T21:34:15.167Z,98514.31
2023-05-17T21:38:32.790Z,98511.88
2023-05-17T21:42:50.434Z,98505.50
2023-05-17T21:47:08.255Z,98521.34
2023-05-17T21:51:25.968Z,98513.75
2023-05-17T21:56:00.647Z,98509.34
2023-05-17T22:00:20.393Z,98514.03
2023-05-17T22:04:38.948Z,98524.53
2023-05-17T22:08:56.039Z,98512.50
2023-05-17T22:13:16.204Z,98510.13
2023-05-17T22:17:47.828Z,98523.94
2023-05-17T22:22:09.336Z,98522.13
2023-05-17T22:26:28.098Z,98517.16
2023-05-17T22:30:46.658Z,98521.56
2023-05-17T22:35:05.785Z,98529.00
2023-05-17T22:39:23.350Z,98522.78
2023-05-17T22:43:41.034Z,98521.34
2023-05-17T22:47:59.163Z,98529.81
2023-05-17T22:52:17.726Z,98532.19
2023-05-17T22:56:35.430Z,98530.00
2023-05-17T23:00:53.390Z,98532.00
2023-05-17T23:05:11.574Z,98533.22
2023-05-17T23:09:30.291Z,98528.00
2023-05-17T23:13:48.079Z,98521.81
2023-05-17T23:18:06.148Z,98518.59
2023-05-17T23:22:23.875Z,98518.59
2023-05-17T23:26:41.560Z,98515.34
2023-05-17T23:31:02.384Z,98517.81
2023-05-17T23:35:20.081Z,98523.69
2023-05-17T23:39:37.826Z,98522.00
2023-05-17T23:43:57.218Z,98518.44
2023-05-17T23:48:16.457Z,98517.38
2023-05-17T23:52:34.012Z,98521.47
2023-05-17T23:56:51.697Z,98518.22
